createdAt,value
2019-02-03T00:00:46.259Z,14.10
2019-02-03T00:03:13.875Z,13.77
2019-02-03T00:05:41.447Z,16.57
2019-02-03T00:08:09.025Z,14.20
2019-02-03T00:10:38.811Z,15.37
2019-02-03T00:13:06.573Z,12.87
2019-02-03T00:15:34.152Z,13.17
2019-02-03T00:18:01.830Z,12.83
2019-02-03T00:20:29.413Z,12.70
2019-02-03T00:22:56.996Z,11.67
2019-02-03T00:25:25.525Z,12.47
2019-02-03T00:27:53.091Z,11.37
2019-02-03T00:30:21.594Z,13.67
2019-02-03T00:32:51.535Z,11.50
2019-02-03T00:35:16.972Z,13.63
2019-02-03T00:37:44.540Z,14.83
2019-02-03T00:40:13.031Z,13.50
2019-02-03T00:42:40.606Z,12.43
2019-02-03T00:45:08.180Z,15.00
2019-02-03T00:47:35.754Z,14.20
2019-02-03T00:50:04.232Z,26.43
2019-02-03T00:52:31.830Z,15.90
2019-02-03T00:54:59.412Z,15.77
2019-02-03T00:57:27.752Z,16.33
2019-02-03T00:59:55.329Z,17.17
2019-02-03T01:02:22.902Z,23.67
2019-02-03T01:04:50.498Z,19.33
2019-02-03T01:07:27.277Z,20.80
2019-02-03T01:09:45.718Z,20.60
2019-02-03T01:12:13.292Z,20.23
2019-02-03T01:14:40.868Z,22.30
2019-02-03T01:17:08.656Z,21.53
2019-02-03T01:19:36.288Z,30.73
2019-02-03T01:22:03.860Z,21.97
2019-02-03T01:24:33.133Z,21.00
2019-02-03T01:27:01.692Z,22.43
2019-02-03T01:29:29.263Z,20.23
2019-02-03T01:31:56.847Z,23.00
2019-02-03T01:34:24.480Z,27.47
2019-02-03T01:36:52.060Z,22.00
2019-02-03T01:39:19.632Z,21.40
2019-02-03T01:41:47.203Z,23.27
2019-02-03T01:44:14.779Z,20.70
2019-02-03T01:46:43.297Z,30.67
2019-02-03T01:49:10.868Z,20.90
2019-02-03T01:51:38.447Z,25.33
2019-02-03T01:54:07.947Z,25.37
2019-02-03T01:56:35.531Z,22.48
2019-02-03T01:59:03.105Z,26.53
2019-02-03T02:01:30.688Z,16.30
2019-02-03T02:03:59.177Z,15.40
2019-02-03T02:06:26.752Z,24.37
2019-02-03T02:08:54.323Z,20.07
2019-02-03T02:11:21.896Z,22.20
2019-02-03T02:13:49.469Z,24.90
2019-02-03T02:16:18.992Z,26.00
2019-02-03T02:18:46.563Z,25.47
2019-02-03T02:21:16.116Z,24.40
2019-02-03T02:23:43.688Z,22.40
2019-02-03T02:26:11.264Z,22.30
2019-02-03T02:28:38.844Z,25.27
2019-02-03T02:31:06.416Z,16.57
2019-02-03T02:33:34.765Z,16.70
2019-02-03T02:36:03.155Z,15.45
2019-02-03T02:38:30.724Z,12.80
2019-02-03T02:40:58.301Z,12.73
2019-02-03T02:43:25.871Z,12.27
2019-02-03T02:45:53.560Z,11.60
2019-02-03T02:48:21.137Z,11.20
2019-02-03T02:50:50.619Z,13.90
2019-02-03T02:53:18.193Z,23.80
2019-02-03T02:55:45.781Z,13.17
2019-02-03T02:58:13.457Z,12.80
2019-02-03T03:00:40.987Z,18.40
2019-02-03T03:03:08.572Z,10.93
2019-02-03T03:05:36.155Z,19.43
2019-02-03T03:08:04.541Z,14.47
2019-02-03T03:10:32.134Z,13.27
2019-02-03T03:12:59.704Z,14.73
2019-02-03T03:15:28.227Z,12.63
2019-02-03T03:17:55.817Z,14.07
2019-02-03T03:20:23.409Z,22.90
2019-02-03T03:22:51.036Z,16.03
2019-02-03T03:25:18.618Z,16.57
2019-02-03T03:27:46.204Z,17.73
2019-02-03T03:30:22.466Z,17.53
2019-02-03T03:32:50.161Z,15.10
2019-02-03T03:35:17.715Z,13.53
2019-02-03T03:37:45.327Z,16.37
2019-02-03T03:40:14.005Z,13.35
2019-02-03T03:42:41.586Z,12.83
2019-02-03T03:45:09.160Z,12.73
2019-02-03T03:47:36.929Z,25.53
2019-02-03T03:50:06.305Z,14.17
2019-02-03T03:52:33.929Z,18.07
2019-02-03T03:55:01.506Z,13.80
2019-02-03T03:57:29.103Z,14.60
2019-02-03T03:59:56.694Z,19.13
2019-02-03T04:02:24.372Z,13.57
2019-02-03T04:04:51.908Z,30.80
2019-02-03T04:07:19.532Z,15.33
2019-02-03T04:09:47.100Z,11.30
2019-02-03T04:12:14.685Z,22.17
2019-02-03T04:14:43.036Z,16.10
2019-02-03T04:17:10.619Z,10.10
2019-02-03T04:19:38.192Z,10.03
2019-02-03T04:22:05.764Z,13.23
2019-02-03T04:24:33.382Z,12.00
2019-02-03T04:27:02.898Z,11.50
2019-02-03T04:29:30.483Z,11.23
2019-02-03T04:31:58.938Z,21.47
2019-02-03T04:34:29.752Z,10.43
2019-02-03T04:36:54.132Z,11.07
2019-02-03T04:39:21.752Z,10.33
2019-02-03T04:41:49.324Z,12.53
2019-02-03T04:44:16.897Z,12.10
2019-02-03T04:46:44.476Z,17.10
2019-02-03T04:49:12.049Z,11.00
2019-02-03T04:51:40.401Z,11.70
2019-02-03T04:54:07.984Z,9.83
2019-02-03T04:56:35.566Z,10.43
2019-02-03T04:59:03.150Z,16.87
2019-02-03T05:01:31.659Z,12.83
2019-02-03T05:03:59.232Z,12.00
2019-02-03T05:06:27.740Z,11.90
2019-02-03T05:08:55.313Z,15.20
2019-02-03T05:11:22.888Z,13.70
2019-02-03T05:13:50.466Z,14.93
2019-02-03T05:16:19.932Z,10.43
2019-02-03T05:18:47.510Z,12.03
2019-02-03T05:21:15.084Z,11.33
2019-02-03T05:23:42.810Z,21.50
2019-02-03T05:26:10.270Z,7.60
2019-02-03T05:28:37.865Z,15.90
2019-02-03T05:31:05.444Z,10.03
2019-02-03T05:33:33.024Z,11.67
2019-02-03T05:36:00.587Z,7.20
2019-02-03T05:38:28.190Z,10.50
2019-02-03T05:40:55.770Z,10.90
2019-02-03T05:43:24.120Z,14.07
2019-02-03T05:45:51.688Z,7.03
2019-02-03T05:48:19.264Z,14.77
2019-02-03T05:50:46.841Z,10.40
2019-02-03T05:53:14.434Z,10.43
2019-02-03T05:55:42.006Z,6.07
2019-02-03T05:58:12.312Z,10.13
2019-02-03T06:00:39.893Z,10.10
2019-02-03T06:03:07.472Z,10.20
2019-02-03T06:05:35.048Z,6.30
2019-02-03T06:08:02.630Z,13.33
2019-02-03T06:10:30.220Z,6.90
2019-02-03T06:12:57.832Z,7.83
2019-02-03T06:15:25.423Z,7.63
2019-02-03T06:17:54.050Z,6.60
2019-02-03T06:20:24.325Z,7.80
2019-02-03T06:22:51.896Z,10.10
2019-02-03T06:25:20.478Z,9.03
2019-02-03T06:27:48.104Z,6.63
2019-02-03T06:33:32.817Z,10.82
2019-02-03T06:36:00.409Z,10.90
2019-02-03T06:38:27.984Z,17.93
2019-02-03T06:40:57.476Z,10.93
2019-02-03T06:43:25.045Z,17.10
2019-02-03T06:45:52.616Z,8.40
2019-02-03T06:48:20.232Z,8.20
2019-02-03T06:50:47.817Z,8.40
2019-02-03T06:53:16.145Z,5.30
2019-02-03T06:55:43.723Z,11.50
2019-02-03T06:58:11.287Z,6.80
2019-02-03T07:00:38.864Z,13.30
2019-02-03T07:03:07.216Z,6.67
2019-02-03T07:05:34.781Z,7.43
2019-02-03T07:08:02.385Z,10.00
2019-02-03T07:10:31.901Z,8.17
2019-02-03T07:12:59.481Z,15.93
2019-02-03T07:15:27.064Z,9.90
2019-02-03T07:17:56.548Z,13.73
2019-02-03T07:20:24.129Z,11.83
2019-02-03T07:22:53.412Z,8.97
2019-02-03T07:25:20.989Z,9.30
2019-02-03T07:27:48.564Z,10.37
2019-02-03T07:30:18.972Z,8.20
2019-02-03T07:32:46.543Z,8.63
2019-02-03T07:35:14.122Z,10.27
2019-02-03T07:37:41.701Z,7.17
2019-02-03T07:40:15.728Z,8.40
2019-02-03T07:42:43.314Z,9.53
2019-02-03T07:45:10.889Z,9.30
2019-02-03T07:47:38.462Z,12.10
2019-02-03T07:50:07.764Z,11.43
2019-02-03T07:52:35.340Z,12.67
2019-02-03T07:55:02.965Z,11.67
2019-02-03T07:57:30.541Z,12.63
2019-02-03T07:59:58.116Z,13.30
2019-02-03T08:02:25.694Z,13.70
2019-02-03T08:04:53.318Z,13.73
2019-02-03T08:07:20.891Z,13.00
2019-02-03T08:09:48.463Z,15.83
2019-02-03T08:12:16.964Z,17.87
2019-02-03T08:14:44.549Z,53.43
2019-02-03T08:17:13.061Z,15.30
2019-02-03T08:19:40.649Z,13.73
2019-02-03T08:22:08.232Z,15.57
2019-02-03T08:24:35.810Z,13.20
2019-02-03T08:27:03.399Z,12.80
2019-02-03T08:29:32.904Z,11.43
2019-02-03T08:32:00.476Z,12.00
2019-02-03T08:34:28.062Z,12.30
2019-02-03T08:36:55.680Z,16.73
2019-02-03T08:39:23.265Z,22.07
2019-02-03T08:41:50.839Z,13.57
2019-02-03T08:44:18.417Z,17.87
2019-02-03T08:46:46.959Z,15.27
2019-02-03T08:49:14.536Z,14.00
2019-02-03T08:51:42.119Z,14.13
2019-02-03T08:54:09.712Z,15.57
2019-02-03T08:56:37.289Z,17.90
2019-02-03T08:59:04.866Z,14.30
2019-02-03T09:01:32.436Z,18.80
2019-02-03T09:04:00.005Z,20.80
2019-02-03T09:06:29.480Z,12.63
2019-02-03T09:08:57.111Z,10.33
2019-02-03T09:11:24.707Z,18.83
2019-02-03T09:13:52.286Z,9.77
2019-02-03T09:16:19.864Z,11.47
2019-02-03T09:18:48.372Z,13.50
2019-02-03T09:21:15.952Z,14.00
2019-02-03T09:23:43.567Z,15.80
2019-02-03T09:26:11.148Z,15.87
2019-02-03T09:28:38.730Z,18.23
2019-02-03T09:31:07.344Z,18.33
2019-02-03T09:33:34.911Z,20.97
2019-02-03T09:36:02.483Z,21.50
2019-02-03T09:38:30.064Z,22.63
2019-02-03T09:41:00.329Z,22.93
2019-02-03T09:43:26.798Z,22.20
2019-02-03T09:45:54.385Z,23.30
2019-02-03T09:48:22.084Z,23.23
2019-02-03T09:50:51.686Z,24.57
2019-02-03T09:53:19.264Z,28.57
2019-02-03T09:55:46.884Z,29.90
2019-02-03T09:58:14.520Z,27.83
2019-02-03T10:00:42.085Z,31.73
2019-02-03T10:03:10.421Z,30.10
2019-02-03T10:05:38.011Z,32.07
2019-02-03T10:08:05.631Z,34.90
2019-02-03T10:10:34.955Z,37.90
2019-02-03T10:13:02.544Z,33.80
2019-02-03T10:15:30.136Z,36.60
2019-02-03T10:17:57.720Z,34.80
2019-02-03T10:20:26.329Z,32.57
2019-02-03T10:22:54.683Z,36.20
2019-02-03T10:25:24.965Z,35.57
2019-02-03T10:27:52.546Z,35.97
2019-02-03T10:30:21.141Z,33.70
2019-02-03T10:32:48.721Z,36.03
2019-02-03T10:35:23.505Z,36.07
2019-02-03T10:37:45.855Z,72.00
2019-02-03T10:40:14.185Z,34.30
2019-02-03T10:42:41.776Z,32.53
2019-02-03T10:45:09.374Z,35.00
2019-02-03T10:47:36.949Z,34.57
2019-02-03T10:50:04.529Z,33.67
2019-02-03T10:52:32.109Z,32.00
2019-02-03T10:54:59.761Z,33.43
2019-02-03T10:57:27.316Z,32.30
2019-02-03T10:59:55.709Z,29.20
2019-02-03T11:02:23.308Z,29.63
2019-02-03T11:04:50.894Z,28.27
2019-02-03T11:07:18.476Z,28.80
2019-02-03T11:09:46.065Z,30.20
2019-02-03T11:12:13.660Z,27.20
2019-02-03T11:14:41.249Z,30.20
2019-02-03T11:17:08.880Z,28.97
2019-02-03T11:19:36.469Z,26.40
2019-02-03T11:22:04.057Z,29.33
2019-02-03T11:24:32.410Z,30.40
2019-02-03T11:26:59.996Z,30.60
2019-02-03T11:29:27.703Z,29.27
2019-02-03T11:31:55.300Z,28.67
2019-02-03T11:34:24.844Z,24.40
2019-02-03T11:36:52.429Z,29.03
2019-02-03T11:39:20.026Z,28.60
2019-02-03T11:41:49.629Z,32.30
2019-02-03T11:44:18.096Z,29.13
2019-02-03T11:46:45.676Z,28.63
2019-02-03T11:49:13.260Z,24.87
2019-02-03T11:51:41.818Z,28.77
2019-02-03T11:54:09.408Z,24.37
2019-02-03T11:56:36.996Z,37.23
2019-02-03T11:59:04.572Z,26.30
2019-02-03T12:01:32.152Z,24.30
2019-02-03T12:03:59.750Z,27.70
2019-02-03T12:06:27.393Z,26.00
2019-02-03T12:08:54.977Z,24.73
2019-02-03T12:11:22.560Z,26.13
2019-02-03T12:13:50.141Z,23.20
2019-02-03T12:16:18.480Z,22.20
2019-02-03T12:18:46.065Z,26.87
2019-02-03T12:21:13.689Z,25.47
2019-02-03T12:23:41.280Z,23.40
2019-02-03T12:26:08.861Z,25.40
2019-02-03T12:28:38.394Z,22.97
2019-02-03T12:31:05.993Z,25.10
2019-02-03T12:33:33.568Z,25.33
2019-02-03T12:36:01.272Z,22.30
2019-02-03T12:38:28.840Z,24.30
2019-02-03T12:40:58.329Z,25.87
2019-02-03T12:43:25.914Z,23.77
2019-02-03T12:45:54.499Z,25.60
2019-02-03T12:48:22.240Z,24.57
2019-02-03T12:50:50.203Z,21.07
2019-02-03T12:53:17.780Z,22.53
2019-02-03T12:55:45.360Z,22.83
2019-02-03T12:58:12.945Z,22.80
2019-02-03T13:00:40.644Z,21.62
2019-02-03T13:03:08.216Z,22.47
2019-02-03T13:05:35.798Z,21.63
2019-02-03T13:08:03.416Z,22.33
2019-02-03T13:10:33.015Z,22.80
2019-02-03T13:13:00.594Z,22.33
2019-02-03T13:15:29.809Z,22.47
2019-02-03T13:17:57.383Z,21.03
2019-02-03T13:20:25.028Z,22.17
2019-02-03T13:22:52.692Z,23.87
2019-02-03T13:25:20.264Z,22.43
2019-02-03T13:27:49.883Z,22.23
2019-02-03T13:30:33.146Z,22.33
2019-02-03T13:33:02.649Z,24.97
2019-02-03T13:35:30.233Z,22.17
2019-02-03T13:37:57.817Z,21.13
2019-02-03T13:40:25.401Z,21.07
2019-02-03T13:42:52.976Z,25.83
2019-02-03T13:45:21.215Z,21.07
2019-02-03T13:47:48.184Z,21.73
2019-02-03T13:50:15.761Z,21.53
2019-02-03T13:52:43.349Z,23.53
2019-02-03T13:55:11.697Z,22.63
2019-02-03T13:57:39.277Z,21.20
2019-02-03T14:00:12.260Z,19.10
2019-02-03T14:02:39.980Z,22.00
2019-02-03T14:05:07.564Z,20.90
2019-02-03T14:07:37.088Z,20.40
2019-02-03T14:10:02.774Z,21.43
2019-02-03T14:12:30.366Z,21.63
2019-02-03T14:14:58.716Z,21.60
2019-02-03T14:17:26.292Z,23.20
2019-02-03T14:19:53.863Z,23.23
2019-02-03T14:22:23.339Z,22.73
2019-02-03T14:24:50.913Z,23.80
2019-02-03T14:27:20.407Z,30.50
2019-02-03T14:29:47.993Z,34.33
2019-02-03T14:32:15.576Z,38.97
2019-02-03T14:34:43.152Z,23.80
2019-02-03T14:37:10.731Z,31.07
2019-02-03T14:39:38.310Z,28.83
2019-02-03T14:42:05.897Z,25.80
2019-02-03T14:44:33.480Z,26.70
2019-02-03T14:47:01.055Z,28.50
2019-02-03T14:49:28.679Z,24.93
2019-02-03T14:51:58.184Z,26.30
2019-02-03T14:56:59.815Z,26.60
2019-02-03T14:59:27.385Z,27.57
2019-02-03T15:01:55.740Z,26.23
2019-02-03T15:04:24.080Z,25.60
2019-02-03T15:06:51.668Z,27.93
2019-02-03T15:09:21.939Z,25.20
2019-02-03T15:11:47.701Z,27.10
2019-02-03T15:14:15.284Z,27.83
2019-02-03T15:16:42.895Z,24.43
2019-02-03T15:19:10.467Z,26.00
2019-02-03T15:21:38.032Z,27.10
2019-02-03T15:24:16.062Z,25.83
2019-02-03T15:26:33.233Z,26.90
2019-02-03T15:29:01.125Z,27.90
2019-02-03T15:31:28.712Z,27.40
2019-02-03T15:33:58.256Z,25.53
2019-02-03T15:36:25.836Z,27.00
2019-02-03T15:38:53.456Z,27.10
2019-02-03T15:41:22.030Z,26.37
2019-02-03T15:43:50.515Z,26.07
2019-02-03T15:46:18.097Z,24.23
2019-02-03T15:48:45.687Z,24.33
2019-02-03T15:51:14.032Z,22.33
2019-02-03T15:53:41.613Z,25.50
2019-02-03T15:56:09.195Z,26.47
2019-02-03T15:58:36.780Z,25.17
2019-02-03T16:01:04.371Z,26.00
2019-02-03T16:03:33.915Z,26.40
2019-02-03T16:06:01.502Z,25.63
2019-02-03T16:08:29.084Z,26.77
2019-02-03T16:10:56.665Z,29.57
2019-02-03T16:13:36.482Z,27.40
2019-02-03T16:15:52.790Z,26.30
2019-02-03T16:18:20.363Z,25.90
2019-02-03T16:20:48.711Z,28.50
2019-02-03T16:23:16.308Z,31.23
2019-02-03T16:25:43.879Z,29.03
2019-02-03T16:28:13.407Z,30.47
2019-02-03T16:30:41.015Z,30.60
2019-02-03T16:33:09.514Z,32.27
2019-02-03T16:35:37.927Z,33.30
2019-02-03T16:38:05.517Z,31.60
2019-02-03T16:40:34.092Z,29.30
2019-02-03T16:43:01.673Z,28.67
2019-02-03T16:45:30.018Z,27.23
2019-02-03T16:47:57.599Z,29.73
2019-02-03T16:50:25.262Z,30.20
2019-02-03T16:52:52.833Z,29.10
2019-02-03T16:55:20.532Z,29.87
2019-02-03T16:57:48.121Z,28.10
2019-02-03T17:00:19.916Z,29.13
2019-02-03T17:02:47.505Z,32.03
2019-02-03T17:05:25.200Z,26.77
2019-02-03T17:07:42.708Z,27.00
2019-02-03T17:10:11.095Z,25.33
2019-02-03T17:12:39.635Z,26.00
2019-02-03T17:18:02.601Z,33.40
2019-02-03T17:20:31.260Z,29.83
2019-02-03T17:22:58.840Z,28.90
2019-02-03T17:25:33.523Z,27.07
2019-02-03T17:28:00.955Z,27.13
2019-02-03T17:30:28.572Z,26.60
2019-02-03T17:32:56.160Z,24.87
2019-02-03T17:35:23.800Z,26.53
2019-02-03T17:37:51.501Z,27.10
2019-02-03T17:40:19.088Z,25.43
2019-02-03T17:42:46.669Z,32.30
2019-02-03T17:45:15.948Z,27.20
2019-02-03T17:47:43.568Z,29.70
2019-02-03T17:50:11.149Z,33.67
2019-02-03T17:52:39.298Z,25.77
2019-02-03T17:55:06.352Z,27.00
2019-02-03T17:57:35.868Z,30.30
2019-02-03T18:00:05.145Z,30.67
2019-02-03T18:02:33.948Z,33.10
2019-02-03T18:05:00.397Z,30.03
2019-02-03T18:07:27.980Z,25.40
2019-02-03T18:09:57.287Z,25.53
2019-02-03T18:12:25.632Z,29.20
2019-02-03T18:14:53.213Z,25.90
2019-02-03T18:17:22.780Z,26.13
2019-02-03T18:19:52.276Z,24.77
2019-02-03T18:22:19.853Z,26.00
2019-02-03T18:24:47.432Z,26.33
2019-02-03T18:27:16.983Z,25.17
2019-02-03T18:29:44.562Z,24.37
2019-02-03T18:32:14.679Z,26.13
2019-02-03T18:34:40.596Z,25.30
2019-02-03T18:37:08.175Z,24.67
2019-02-03T18:39:36.198Z,25.83
2019-02-03T18:42:03.780Z,24.27
2019-02-03T18:44:36.163Z,25.53
2019-02-03T18:47:00.949Z,23.50
2019-02-03T18:49:28.562Z,31.90
2019-02-03T18:51:56.350Z,33.90
2019-02-03T18:54:23.960Z,32.07
2019-02-03T18:56:51.736Z,28.13
2019-02-03T18:59:19.314Z,25.87
2019-02-03T19:01:46.914Z,23.87
2019-02-03T19:04:14.532Z,24.97
2019-02-03T19:06:42.104Z,24.37
2019-02-03T19:09:09.690Z,25.03
2019-02-03T19:11:37.266Z,26.77
2019-02-03T19:14:04.835Z,24.27
2019-02-03T19:16:32.413Z,25.47
2019-02-03T19:19:00.097Z,24.93
2019-02-03T19:21:27.764Z,24.63
2019-02-03T19:23:55.305Z,22.87
2019-02-03T19:26:24.823Z,21.40
2019-02-03T19:28:52.399Z,21.13
2019-02-03T19:31:20.217Z,20.93
2019-02-03T19:33:47.795Z,19.47
2019-02-03T19:36:15.421Z,20.73
2019-02-03T19:38:42.994Z,20.90
2019-02-03T19:41:10.581Z,20.80
2019-02-03T19:43:38.169Z,20.90
2019-02-03T19:46:05.765Z,21.60
2019-02-03T19:48:33.350Z,20.23
2019-02-03T19:51:01.873Z,22.50
2019-02-03T19:53:29.455Z,20.70
2019-02-03T19:55:57.040Z,25.70
2019-02-03T19:58:24.628Z,24.73
2019-02-03T20:00:52.209Z,21.37
2019-02-03T20:03:19.790Z,21.07
2019-02-03T20:05:47.621Z,18.93
2019-02-03T20:08:15.243Z,19.50
2019-02-03T20:10:43.197Z,20.30
2019-02-03T20:13:10.817Z,20.33
2019-02-03T20:15:38.407Z,18.00
2019-02-03T20:18:05.983Z,18.60
2019-02-03T20:20:34.860Z,17.60
2019-02-03T20:23:02.464Z,17.27
2019-02-03T20:25:31.065Z,17.10
2019-02-03T20:27:58.644Z,17.23
2019-02-03T20:30:37.957Z,19.07
2019-02-03T20:32:54.753Z,20.00
2019-02-03T20:35:22.335Z,21.17
2019-02-03T20:37:49.925Z,21.53
2019-02-03T20:40:19.989Z,19.73
2019-02-03T20:42:48.333Z,18.83
2019-02-03T20:45:21.292Z,18.50
2019-02-03T20:47:43.586Z,18.30
2019-02-03T20:50:12.631Z,17.80
2019-02-03T20:52:40.377Z,18.50
2019-02-03T20:55:08.981Z,20.43
2019-02-03T20:57:36.573Z,18.70
2019-02-03T21:00:08.384Z,19.30
2019-02-03T21:02:36.896Z,19.77
2019-02-03T21:05:07.153Z,20.67
2019-02-03T21:07:34.732Z,21.03
2019-02-03T21:10:02.307Z,18.90
2019-02-03T21:12:29.885Z,19.60
2019-02-03T21:14:57.468Z,18.70
2019-02-03T21:17:25.048Z,19.97
2019-02-03T21:19:53.130Z,17.40
2019-02-03T21:22:20.708Z,17.90
2019-02-03T21:24:49.329Z,17.87
2019-02-03T21:27:16.970Z,20.50
2019-02-03T21:29:44.557Z,18.70
2019-02-03T21:32:14.062Z,18.27
2019-02-03T21:34:41.854Z,18.50
2019-02-03T21:37:09.432Z,18.10
2019-02-03T21:39:37.008Z,18.40
2019-02-03T21:42:04.582Z,18.77
2019-02-03T21:44:32.168Z,20.17
2019-02-03T21:46:59.752Z,19.53
2019-02-03T21:49:27.324Z,19.20
2019-02-03T21:51:54.905Z,20.07
2019-02-03T21:54:23.249Z,19.83
2019-02-03T21:56:50.825Z,19.90
2019-02-03T21:59:19.412Z,18.87
2019-02-03T22:01:47.000Z,20.63
2019-02-03T22:04:14.585Z,17.40
2019-02-03T22:06:42.156Z,18.93
2019-02-03T22:09:09.741Z,19.37
2019-02-03T22:11:37.327Z,18.27
2019-02-03T22:14:04.913Z,19.07
2019-02-03T22:16:32.490Z,20.80
2019-02-03T22:19:00.890Z,18.20
2019-02-03T22:21:29.592Z,19.40
2019-02-03T22:23:57.940Z,19.23
2019-02-03T22:26:26.444Z,20.20
2019-02-03T22:28:54.020Z,19.80
2019-02-03T22:31:21.606Z,19.40
2019-02-03T22:33:49.181Z,19.90
2019-02-03T22:36:16.778Z,18.80
2019-02-03T22:38:45.128Z,18.90
2019-02-03T22:41:12.701Z,20.00
2019-02-03T22:43:40.280Z,18.43
2019-02-03T22:46:07.917Z,19.03
2019-02-03T22:48:36.492Z,19.63
2019-02-03T22:51:04.069Z,19.10
2019-02-03T22:53:33.608Z,19.27
2019-02-03T22:56:02.173Z,18.60
2019-02-03T22:58:29.763Z,18.10
2019-02-03T23:00:58.153Z,18.70
2019-02-03T23:03:30.306Z,17.87
2019-02-03T23:05:57.893Z,16.70
2019-02-03T23:08:25.479Z,17.40
2019-02-03T23:10:53.055Z,17.87
2019-02-03T23:13:20.640Z,17.30
2019-02-03T23:15:48.259Z,17.90
2019-02-03T23:18:15.883Z,17.80
2019-02-03T23:20:43.458Z,18.00
2019-02-03T23:23:11.041Z,20.33
2019-02-03T23:25:38.612Z,18.73
2019-02-03T23:28:06.197Z,19.13
2019-02-03T23:30:33.772Z,17.60
2019-02-03T23:33:01.352Z,17.83
2019-02-03T23:35:28.936Z,18.20
2019-02-03T23:37:58.493Z,19.53
2019-02-03T23:40:26.992Z,19.63
2019-02-03T23:42:54.572Z,20.97
2019-02-03T23:45:22.160Z,21.73
2019-02-03T23:47:49.788Z,19.90
2019-02-03T23:50:18.416Z,19.80
2019-02-03T23:52:46.017Z,19.27
2019-02-03T23:55:13.600Z,18.97
2019-02-03T23:57:41.193Z,17.43
